sensor_id;sensor_type;location;lat;lon;timestamp;P1;durP1;ratioP1;P2;durP2;ratioP2
70148;SDS011;57514;52.164;5.282;2023-04-03T00:01:52;4.80;;;2.83;;
70148;SDS011;57514;52.164;5.282;2023-04-03T00:04:19;8.48;;;3.17;;
70148;SDS011;57514;52.164;5.282;2023-04-03T00:06:46;8.70;;;2.70;;
70148;SDS011;57514;52.164;5.282;2023-04-03T00:09:14;5.50;;;3.13;;
70148;SDS011;57514;52.164;5.282;2023-04-03T00:11:41;4.80;;;2.58;;
70148;SDS011;57514;52.164;5.282;2023-04-03T00:14:09;5.00;;;2.65;;
70148;SDS011;57514;52.164;5.282;2023-04-03T00:16:36;5.15;;;2.53;;
70148;SDS011;57514;52.164;5.282;2023-04-03T00:19:03;4.75;;;2.85;;
70148;SDS011;57514;52.164;5.282;2023-04-03T00:21:31;6.75;;;3.10;;
70148;SDS011;57514;52.164;5.282;2023-04-03T00:23:58;5.07;;;2.65;;
70148;SDS011;57514;52.164;5.282;2023-04-03T00:26:26;4.57;;;2.35;;
70148;SDS011;57514;52.164;5.282;2023-04-03T00:28:53;5.47;;;2.53;;
70148;SDS011;57514;52.164;5.282;2023-04-03T00:31:20;4.53;;;2.60;;
70148;SDS011;57514;52.164;5.282;2023-04-03T00:33:47;4.97;;;2.78;;
70148;SDS011;57514;52.164;5.282;2023-04-03T00:36:15;4.97;;;2.75;;
70148;SDS011;57514;52.164;5.282;2023-04-03T00:38:42;6.38;;;2.75;;
70148;SDS011;57514;52.164;5.282;2023-04-03T00:41:09;6.88;;;2.65;;
70148;SDS011;57514;52.164;5.282;2023-04-03T00:43:37;3.97;;;2.53;;
70148;SDS011;57514;52.164;5.282;2023-04-03T00:46:04;4.88;;;3.20;;
70148;SDS011;57514;52.164;5.282;2023-04-03T00:50:59;8.70;;;3.38;;
70148;SDS011;57514;52.164;5.282;2023-04-03T00:53:31;4.53;;;2.50;;
70148;SDS011;57514;52.164;5.282;2023-04-03T00:55:59;4.68;;;2.83;;
70148;SDS011;57514;52.164;5.282;2023-04-03T00:58:30;5.50;;;2.75;;
70148;SDS011;57514;52.164;5.282;2023-04-03T01:00:59;5.03;;;2.72;;
70148;SDS011;57514;52.164;5.282;2023-04-03T01:03:26;4.80;;;2.85;;
70148;SDS011;57514;52.164;5.282;2023-04-03T01:05:54;8.07;;;2.88;;
70148;SDS011;57514;52.164;5.282;2023-04-03T01:08:21;7.00;;;2.58;;
70148;SDS011;57514;52.164;5.282;2023-04-03T01:10:49;4.72;;;2.17;;
70148;SDS011;57514;52.164;5.282;2023-04-03T01:13:25;5.25;;;2.67;;
70148;SDS011;57514;52.164;5.282;2023-04-03T01:15:53;7.45;;;3.10;;
70148;SDS011;57514;52.164;5.282;2023-04-03T01:18:21;3.63;;;1.85;;
70148;SDS011;57514;52.164;5.282;2023-04-03T01:23:32;9.32;;;3.08;;
70148;SDS011;57514;52.164;5.282;2023-04-03T01:26:04;4.50;;;1.77;;
70148;SDS011;57514;52.164;5.282;2023-04-03T01:28:34;5.28;;;2.78;;
70148;SDS011;57514;52.164;5.282;2023-04-03T01:31:10;6.38;;;2.80;;
70148;SDS011;57514;52.164;5.282;2023-04-03T01:33:40;8.13;;;3.28;;
70148;SDS011;57514;52.164;5.282;2023-04-03T01:36:09;7.70;;;3.83;;
70148;SDS011;57514;52.164;5.282;2023-04-03T01:38:37;6.55;;;2.63;;
70148;SDS011;57514;52.164;5.282;2023-04-03T01:41:04;5.55;;;2.90;;
70148;SDS011;57514;52.164;5.282;2023-04-03T01:43:32;6.35;;;3.08;;
70148;SDS011;57514;52.164;5.282;2023-04-03T01:45:59;5.55;;;2.38;;
70148;SDS011;57514;52.164;5.282;2023-04-03T01:48:26;6.38;;;2.65;;
70148;SDS011;57514;52.164;5.282;2023-04-03T01:50:54;6.63;;;2.20;;
70148;SDS011;57514;52.164;5.282;2023-04-03T01:53:21;7.75;;;2.85;;
70148;SDS011;57514;52.164;5.282;2023-04-03T01:55:50;7.47;;;3.10;;
70148;SDS011;57514;52.164;5.282;2023-04-03T01:58:17;4.38;;;2.78;;
70148;SDS011;57514;52.164;5.282;2023-04-03T02:00:46;5.28;;;3.13;;
70148;SDS011;57514;52.164;5.282;2023-04-03T02:03:14;5.95;;;2.80;;
70148;SDS011;57514;52.164;5.282;2023-04-03T02:05:42;9.90;;;2.60;;
70148;SDS011;57514;52.164;5.282;2023-04-03T02:08:09;7.18;;;2.97;;
70148;SDS011;57514;52.164;5.282;2023-04-03T02:10:37;7.55;;;3.25;;
70148;SDS011;57514;52.164;5.282;2023-04-03T02:13:05;7.07;;;2.85;;
70148;SDS011;57514;52.164;5.282;2023-04-03T02:15:33;6.05;;;2.88;;
70148;SDS011;57514;52.164;5.282;2023-04-03T02:18:01;6.40;;;3.00;;
70148;SDS011;57514;52.164;5.282;2023-04-03T02:20:33;7.25;;;2.92;;
70148;SDS011;57514;52.164;5.282;2023-04-03T02:23:01;6.57;;;2.88;;
70148;SDS011;57514;52.164;5.282;2023-04-03T02:25:33;8.27;;;3.28;;
70148;SDS011;57514;52.164;5.282;2023-04-03T02:28:03;8.07;;;2.90;;
70148;SDS011;57514;52.164;5.282;2023-04-03T02:30:31;5.13;;;3.05;;
70148;SDS011;57514;52.164;5.282;2023-04-03T02:32:58;7.65;;;2.80;;
70148;SDS011;57514;52.164;5.282;2023-04-03T02:35:26;5.35;;;2.58;;
70148;SDS011;57514;52.164;5.282;2023-04-03T02:37:55;4.28;;;2.80;;
70148;SDS011;57514;52.164;5.282;2023-04-03T02:40:23;6.75;;;4.50;;
70148;SDS011;57514;52.164;5.282;2023-04-03T02:42:50;6.88;;;2.92;;
70148;SDS011;57514;52.164;5.282;2023-04-03T02:45:18;7.25;;;2.90;;
70148;SDS011;57514;52.164;5.282;2023-04-03T02:47:46;5.57;;;2.80;;
70148;SDS011;57514;52.164;5.282;2023-04-03T02:50:13;5.32;;;2.58;;
70148;SDS011;57514;52.164;5.282;2023-04-03T02:52:40;6.65;;;3.17;;
70148;SDS011;57514;52.164;5.282;2023-04-03T02:55:08;6.70;;;2.90;;
70148;SDS011;57514;52.164;5.282;2023-04-03T02:57:35;7.50;;;3.15;;
70148;SDS011;57514;52.164;5.282;2023-04-03T03:00:03;6.93;;;3.25;;
70148;SDS011;57514;52.164;5.282;2023-04-03T03:02:30;6.75;;;3.05;;
70148;SDS011;57514;52.164;5.282;2023-04-03T03:04:57;6.28;;;3.08;;
70148;SDS011;57514;52.164;5.282;2023-04-03T03:07:25;7.65;;;3.03;;
70148;SDS011;57514;52.164;5.282;2023-04-03T03:09:55;7.50;;;2.80;;
70148;SDS011;57514;52.164;5.282;2023-04-03T03:12:22;7.40;;;3.22;;
70148;SDS011;57514;52.164;5.282;2023-04-03T03:14:50;5.88;;;2.78;;
70148;SDS011;57514;52.164;5.282;2023-04-03T03:17:18;9.02;;;3.00;;
70148;SDS011;57514;52.164;5.282;2023-04-03T03:19:45;6.00;;;3.10;;
70148;SDS011;57514;52.164;5.282;2023-04-03T03:22:13;7.18;;;3.40;;
70148;SDS011;57514;52.164;5.282;2023-04-03T03:24:40;6.50;;;2.92;;
70148;SDS011;57514;52.164;5.282;2023-04-03T03:27:08;7.30;;;3.28;;
70148;SDS011;57514;52.164;5.282;2023-04-03T03:29:35;6.85;;;3.20;;
70148;SDS011;57514;52.164;5.282;2023-04-03T03:32:03;7.15;;;3.28;;
70148;SDS011;57514;52.164;5.282;2023-04-03T03:34:31;7.63;;;3.20;;
70148;SDS011;57514;52.164;5.282;2023-04-03T03:36:58;6.93;;;3.10;;
70148;SDS011;57514;52.164;5.282;2023-04-03T03:39:26;7.35;;;3.67;;
70148;SDS011;57514;52.164;5.282;2023-04-03T03:41:53;6.55;;;3.25;;
70148;SDS011;57514;52.164;5.282;2023-04-03T03:44:21;9.15;;;3.58;;
70148;SDS011;57514;52.164;5.282;2023-04-03T03:46:49;5.40;;;2.80;;
70148;SDS011;57514;52.164;5.282;2023-04-03T03:49:16;8.35;;;3.40;;
70148;SDS011;57514;52.164;5.282;2023-04-03T03:51:44;6.80;;;2.22;;
70148;SDS011;57514;52.164;5.282;2023-04-03T03:54:11;7.13;;;3.28;;
70148;SDS011;57514;52.164;5.282;2023-04-03T03:56:39;9.55;;;3.60;;
70148;SDS011;57514;52.164;5.282;2023-04-03T03:59:06;9.48;;;3.25;;
70148;SDS011;57514;52.164;5.282;2023-04-03T04:01:33;7.95;;;2.97;;
70148;SDS011;57514;52.164;5.282;2023-04-03T04:04:02;5.43;;;2.97;;
70148;SDS011;57514;52.164;5.282;2023-04-03T04:06:30;6.63;;;3.15;;
70148;SDS011;57514;52.164;5.282;2023-04-03T04:09:01;9.57;;;3.60;;
70148;SDS011;57514;52.164;5.282;2023-04-03T04:11:29;6.80;;;3.17;;
70148;SDS011;57514;52.164;5.282;2023-04-03T04:13:59;7.57;;;3.25;;
70148;SDS011;57514;52.164;5.282;2023-04-03T04:16:28;8.75;;;3.63;;
70148;SDS011;57514;52.164;5.282;2023-04-03T04:18:59;9.02;;;3.80;;
70148;SDS011;57514;52.164;5.282;2023-04-03T04:21:26;6.13;;;3.13;;
70148;SDS011;57514;52.164;5.282;2023-04-03T04:23:53;6.78;;;3.42;;
70148;SDS011;57514;52.164;5.282;2023-04-03T04:26:22;9.32;;;3.95;;
70148;SDS011;57514;52.164;5.282;2023-04-03T04:28:49;7.13;;;3.20;;
70148;SDS011;57514;52.164;5.282;2023-04-03T04:31:18;9.63;;;3.50;;
70148;SDS011;57514;52.164;5.282;2023-04-03T04:33:45;7.30;;;3.55;;
70148;SDS011;57514;52.164;5.282;2023-04-03T04:36:14;7.72;;;3.58;;
70148;SDS011;57514;52.164;5.282;2023-04-03T04:38:43;11.27;;;3.78;;
70148;SDS011;57514;52.164;5.282;2023-04-03T04:41:12;7.85;;;3.83;;
70148;SDS011;57514;52.164;5.282;2023-04-03T04:43:40;5.22;;;2.97;;
70148;SDS011;57514;52.164;5.282;2023-04-03T04:46:09;5.93;;;3.30;;
70148;SDS011;57514;52.164;5.282;2023-04-03T04:48:44;7.90;;;3.28;;
70148;SDS011;57514;52.164;5.282;2023-04-03T04:51:12;8.38;;;3.63;;
70148;SDS011;57514;52.164;5.282;2023-04-03T04:53:40;8.73;;;3.90;;
70148;SDS011;57514;52.164;5.282;2023-04-03T04:56:10;7.63;;;3.45;;
70148;SDS011;57514;52.164;5.282;2023-04-03T04:58:38;10.85;;;3.65;;
70148;SDS011;57514;52.164;5.282;2023-04-03T05:01:07;8.10;;;3.67;;
70148;SDS011;57514;52.164;5.282;2023-04-03T05:03:40;9.95;;;3.58;;
70148;SDS011;57514;52.164;5.282;2023-04-03T05:06:07;8.40;;;2.97;;
70148;SDS011;57514;52.164;5.282;2023-04-03T05:08:35;7.50;;;4.00;;
70148;SDS011;57514;52.164;5.282;2023-04-03T05:11:03;6.95;;;3.92;;
70148;SDS011;57514;52.164;5.282;2023-04-03T05:13:30;8.82;;;4.07;;
70148;SDS011;57514;52.164;5.282;2023-04-03T05:15:58;9.20;;;4.22;;
70148;SDS011;57514;52.164;5.282;2023-04-03T05:18:26;8.30;;;4.82;;
70148;SDS011;57514;52.164;5.282;2023-04-03T05:20:56;9.25;;;3.38;;
70148;SDS011;57514;52.164;5.282;2023-04-03T05:23:25;12.05;;;4.00;;
70148;SDS011;57514;52.164;5.282;2023-04-03T05:25:53;10.98;;;4.00;;
70148;SDS011;57514;52.164;5.282;2023-04-03T05:28:21;9.70;;;4.00;;
70148;SDS011;57514;52.164;5.282;2023-04-03T05:30:55;7.55;;;3.50;;
70148;SDS011;57514;52.164;5.282;2023-04-03T05:33:26;8.82;;;3.92;;
70148;SDS011;57514;52.164;5.282;2023-04-03T05:35:56;8.40;;;3.95;;
70148;SDS011;57514;52.164;5.282;2023-04-03T05:38:29;10.55;;;4.43;;
70148;SDS011;57514;52.164;5.282;2023-04-03T05:40:57;11.38;;;3.08;;
70148;SDS011;57514;52.164;5.282;2023-04-03T05:43:26;8.10;;;3.72;;
70148;SDS011;57514;52.164;5.282;2023-04-03T05:45:55;7.63;;;3.60;;
70148;SDS011;57514;52.164;5.282;2023-04-03T05:48:24;6.93;;;3.10;;
70148;SDS011;57514;52.164;5.282;2023-04-03T05:50:52;6.35;;;3.40;;
70148;SDS011;57514;52.164;5.282;2023-04-03T05:53:26;9.50;;;4.10;;
70148;SDS011;57514;52.164;5.282;2023-04-03T05:55:57;6.57;;;3.45;;
70148;SDS011;57514;52.164;5.282;2023-04-03T05:58:24;6.80;;;3.53;;
70148;SDS011;57514;52.164;5.282;2023-04-03T06:00:52;7.30;;;3.05;;
70148;SDS011;57514;52.164;5.282;2023-04-03T06:03:20;5.75;;;3.05;;
70148;SDS011;57514;52.164;5.282;2023-04-03T06:05:47;10.35;;;3.63;;
70148;SDS011;57514;52.164;5.282;2023-04-03T06:08:15;8.50;;;3.53;;
70148;SDS011;57514;52.164;5.282;2023-04-03T06:10:42;5.50;;;2.85;;
70148;SDS011;57514;52.164;5.282;2023-04-03T06:13:10;8.88;;;3.10;;
70148;SDS011;57514;52.164;5.282;2023-04-03T06:15:38;8.65;;;3.47;;
70148;SDS011;57514;52.164;5.282;2023-04-03T06:18:08;9.05;;;3.20;;
70148;SDS011;57514;52.164;5.282;2023-04-03T06:20:36;7.57;;;3.30;;
70148;SDS011;57514;52.164;5.282;2023-04-03T06:23:04;7.72;;;3.20;;
70148;SDS011;57514;52.164;5.282;2023-04-03T06:25:33;6.63;;;2.20;;
70148;SDS011;57514;52.164;5.282;2023-04-03T06:28:01;6.63;;;2.15;;
70148;SDS011;57514;52.164;5.282;2023-04-03T06:30:28;11.48;;;2.63;;
70148;SDS011;57514;52.164;5.282;2023-04-03T06:32:55;6.30;;;2.20;;
70148;SDS011;57514;52.164;5.282;2023-04-03T06:35:22;7.32;;;2.45;;
70148;SDS011;57514;52.164;5.282;2023-04-03T06:37:50;7.63;;;2.00;;
70148;SDS011;57514;52.164;5.282;2023-04-03T06:40:21;11.05;;;2.53;;
70148;SDS011;57514;52.164;5.282;2023-04-03T06:42:49;5.75;;;2.35;;
70148;SDS011;57514;52.164;5.282;2023-04-03T06:45:18;7.15;;;2.42;;
70148;SDS011;57514;52.164;5.282;2023-04-03T06:47:46;5.90;;;2.10;;
70148;SDS011;57514;52.164;5.282;2023-04-03T06:50:13;9.38;;;2.20;;
70148;SDS011;57514;52.164;5.282;2023-04-03T06:52:42;8.63;;;2.22;;
70148;SDS011;57514;52.164;5.282;2023-04-03T06:55:09;6.57;;;2.55;;
70148;SDS011;57514;52.164;5.282;2023-04-03T06:57:37;6.50;;;2.20;;
70148;SDS011;57514;52.164;5.282;2023-04-03T07:00:05;6.55;;;2.20;;
70148;SDS011;57514;52.164;5.282;2023-04-03T07:02:33;8.25;;;2.40;;
70148;SDS011;57514;52.164;5.282;2023-04-03T07:05:01;5.57;;;2.17;;
70148;SDS011;57514;52.164;5.282;2023-04-03T07:07:28;5.50;;;2.20;;
70148;SDS011;57514;52.164;5.282;2023-04-03T07:09:56;5.38;;;2.03;;
70148;SDS011;57514;52.164;5.282;2023-04-03T07:12:23;7.18;;;1.90;;
70148;SDS011;57514;52.164;5.282;2023-04-03T07:14:51;6.80;;;2.10;;
70148;SDS011;57514;52.164;5.282;2023-04-03T07:17:18;7.22;;;2.45;;
70148;SDS011;57514;52.164;5.282;2023-04-03T07:19:45;7.15;;;2.33;;
70148;SDS011;57514;52.164;5.282;2023-04-03T07:22:12;7.45;;;2.15;;
70148;SDS011;57514;52.164;5.282;2023-04-03T07:24:40;6.60;;;2.10;;
70148;SDS011;57514;52.164;5.282;2023-04-03T07:27:07;6.00;;;2.53;;
70148;SDS011;57514;52.164;5.282;2023-04-03T07:29:35;6.20;;;2.05;;
70148;SDS011;57514;52.164;5.282;2023-04-03T07:32:02;7.38;;;2.60;;
70148;SDS011;57514;52.164;5.282;2023-04-03T07:34:29;7.80;;;2.50;;
70148;SDS011;57514;52.164;5.282;2023-04-03T07:36:57;6.25;;;1.92;;
70148;SDS011;57514;52.164;5.282;2023-04-03T07:39:24;4.65;;;1.85;;
70148;SDS011;57514;52.164;5.282;2023-04-03T07:41:52;7.10;;;2.15;;
70148;SDS011;57514;52.164;5.282;2023-04-03T07:44:19;5.38;;;2.00;;
70148;SDS011;57514;52.164;5.282;2023-04-03T07:46:46;5.47;;;2.08;;
70148;SDS011;57514;52.164;5.282;2023-04-03T07:49:14;3.97;;;1.77;;
70148;SDS011;57514;52.164;5.282;2023-04-03T07:51:42;5.47;;;2.03;;
70148;SDS011;57514;52.164;5.282;2023-04-03T07:54:10;6.15;;;2.15;;
70148;SDS011;57514;52.164;5.282;2023-04-03T07:56:37;8.05;;;2.10;;
70148;SDS011;57514;52.164;5.282;2023-04-03T07:59:04;8.73;;;2.33;;
70148;SDS011;57514;52.164;5.282;2023-04-03T08:01:32;7.38;;;2.05;;
70148;SDS011;57514;52.164;5.282;2023-04-03T08:04:00;7.85;;;2.10;;
70148;SDS011;57514;52.164;5.282;2023-04-03T08:06:27;5.80;;;2.10;;
70148;SDS011;57514;52.164;5.282;2023-04-03T08:09:11;7.05;;;2.35;;
70148;SDS011;57514;52.164;5.282;2023-04-03T08:11:39;6.07;;;2.20;;
70148;SDS011;57514;52.164;5.282;2023-04-03T08:14:06;4.90;;;1.65;;
70148;SDS011;57514;52.164;5.282;2023-04-03T08:16:33;4.22;;;1.80;;
70148;SDS011;57514;52.164;5.282;2023-04-03T08:19:01;8.15;;;2.20;;
70148;SDS011;57514;52.164;5.282;2023-04-03T08:21:30;5.32;;;1.95;;
70148;SDS011;57514;52.164;5.282;2023-04-03T08:23:57;4.10;;;1.40;;
70148;SDS011;57514;52.164;5.282;2023-04-03T08:26:24;4.20;;;1.70;;
70148;SDS011;57514;52.164;5.282;2023-04-03T08:28:53;5.93;;;1.75;;
70148;SDS011;57514;52.164;5.282;2023-04-03T08:31:21;5.28;;;1.73;;
70148;SDS011;57514;52.164;5.282;2023-04-03T08:33:48;4.85;;;1.73;;
70148;SDS011;57514;52.164;5.282;2023-04-03T08:36:17;5.05;;;1.70;;
70148;SDS011;57514;52.164;5.282;2023-04-03T08:38:55;3.88;;;1.58;;
70148;SDS011;57514;52.164;5.282;2023-04-03T08:44:22;5.07;;;1.48;;
70148;SDS011;57514;52.164;5.282;2023-04-03T08:50:07;4.18;;;1.63;;
70148;SDS011;57514;52.164;5.282;2023-04-03T08:52:44;5.85;;;1.70;;
70148;SDS011;57514;52.164;5.282;2023-04-03T08:55:28;3.60;;;1.38;;
70148;SDS011;57514;52.164;5.282;2023-04-03T08:58:10;2.88;;;1.27;;
70148;SDS011;57514;52.164;5.282;2023-04-03T09:03:24;3.35;;;1.30;;
70148;SDS011;57514;52.164;5.282;2023-04-03T09:05:57;4.55;;;1.42;;
70148;SDS011;57514;52.164;5.282;2023-04-03T09:08:43;3.08;;;1.63;;
70148;SDS011;57514;52.164;5.282;2023-04-03T09:21:36;5.50;;;1.30;;
70148;SDS011;57514;52.164;5.282;2023-04-03T09:24:08;4.68;;;1.75;;
70148;SDS011;57514;52.164;5.282;2023-04-03T09:26:42;3.30;;;1.10;;
70148;SDS011;57514;52.164;5.282;2023-04-03T09:29:30;1.63;;;0.80;;
70148;SDS011;57514;52.164;5.282;2023-04-03T09:32:01;2.78;;;1.10;;
70148;SDS011;57514;52.164;5.282;2023-04-03T09:34:39;2.83;;;1.67;;
70148;SDS011;57514;52.164;5.282;2023-04-03T09:37:08;2.28;;;0.90;;
70148;SDS011;57514;52.164;5.282;2023-04-03T09:39:51;2.28;;;1.05;;
70148;SDS011;57514;52.164;5.282;2023-04-03T09:42:21;2.63;;;0.90;;
70148;SDS011;57514;52.164;5.282;2023-04-03T09:47:26;2.45;;;1.00;;
70148;SDS011;57514;52.164;5.282;2023-04-03T09:52:41;1.33;;;0.75;;
70148;SDS011;57514;52.164;5.282;2023-04-03T09:55:19;2.80;;;0.98;;
70148;SDS011;57514;52.164;5.282;2023-04-03T09:57:53;2.35;;;0.90;;
70148;SDS011;57514;52.164;5.282;2023-04-03T10:00:36;3.25;;;1.02;;
70148;SDS011;57514;52.164;5.282;2023-04-03T10:03:20;2.03;;;0.63;;
70148;SDS011;57514;52.164;5.282;2023-04-03T10:05:54;2.97;;;1.10;;
70148;SDS011;57514;52.164;5.282;2023-04-03T10:08:28;2.65;;;1.38;;
70148;SDS011;57514;52.164;5.282;2023-04-03T10:11:10;2.20;;;0.90;;
70148;SDS011;57514;52.164;5.282;2023-04-03T10:13:53;1.33;;;0.73;;
70148;SDS011;57514;52.164;5.282;2023-04-03T10:25:01;1.58;;;0.75;;
70148;SDS011;57514;52.164;5.282;2023-04-03T10:27:42;1.30;;;1.20;;
70148;SDS011;57514;52.164;5.282;2023-04-03T10:30:46;1.42;;;0.80;;
70148;SDS011;57514;52.164;5.282;2023-04-03T10:36:04;2.15;;;0.90;;
70148;SDS011;57514;52.164;5.282;2023-04-03T10:45:01;1.88;;;1.02;;
70148;SDS011;57514;52.164;5.282;2023-04-03T10:47:40;3.97;;;1.02;;
70148;SDS011;57514;52.164;5.282;2023-04-03T10:50:30;0.98;;;0.50;;
70148;SDS011;57514;52.164;5.282;2023-04-03T10:58:19;2.63;;;1.23;;
70148;SDS011;57514;52.164;5.282;2023-04-03T11:00:53;1.60;;;0.55;;
70148;SDS011;57514;52.164;5.282;2023-04-03T11:06:02;2.05;;;0.75;;
70148;SDS011;57514;52.164;5.282;2023-04-03T11:11:06;3.08;;;1.15;;
70148;SDS011;57514;52.164;5.282;2023-04-03T11:16:31;4.28;;;1.48;;
70148;SDS011;57514;52.164;5.282;2023-04-03T11:19:20;1.80;;;0.90;;
70148;SDS011;57514;52.164;5.282;2023-04-03T11:21:52;1.92;;;0.93;;
70148;SDS011;57514;52.164;5.282;2023-04-03T11:24:27;3.50;;;0.90;;
70148;SDS011;57514;52.164;5.282;2023-04-03T11:26:57;1.75;;;0.80;;
70148;SDS011;57514;52.164;5.282;2023-04-03T11:29:28;2.75;;;1.00;;
70148;SDS011;57514;52.164;5.282;2023-04-03T11:35:01;1.30;;;0.95;;
70148;SDS011;57514;52.164;5.282;2023-04-03T11:37:33;1.48;;;0.70;;
70148;SDS011;57514;52.164;5.282;2023-04-03T11:40:08;1.45;;;0.85;;
70148;SDS011;57514;52.164;5.282;2023-04-03T11:42:49;2.53;;;1.10;;
70148;SDS011;57514;52.164;5.282;2023-04-03T11:48:06;2.10;;;0.73;;
70148;SDS011;57514;52.164;5.282;2023-04-03T11:50:50;2.10;;;0.93;;
70148;SDS011;57514;52.164;5.282;2023-04-03T11:56:00;3.00;;;1.50;;
70148;SDS011;57514;52.164;5.282;2023-04-03T11:58:30;1.58;;;0.88;;
70148;SDS011;57514;52.164;5.282;2023-04-03T12:16:20;3.33;;;1.20;;
70148;SDS011;57514;52.164;5.282;2023-04-03T12:21:20;2.33;;;0.98;;
70148;SDS011;57514;52.164;5.282;2023-04-03T12:24:15;2.83;;;1.00;;
70148;SDS011;57514;52.164;5.282;2023-04-03T12:29:47;4.28;;;1.15;;
70148;SDS011;57514;52.164;5.282;2023-04-03T12:36:08;3.83;;;0.95;;
70148;SDS011;57514;52.164;5.282;2023-04-03T12:38:52;2.75;;;1.45;;
70148;SDS011;57514;52.164;5.282;2023-04-03T12:41:45;4.60;;;1.42;;
70148;SDS011;57514;52.164;5.282;2023-04-03T12:47:34;3.20;;;1.33;;
70148;SDS011;57514;52.164;5.282;2023-04-03T12:50:28;1.98;;;1.10;;
70148;SDS011;57514;52.164;5.282;2023-04-03T12:52:57;2.95;;;0.93;;
70148;SDS011;57514;52.164;5.282;2023-04-03T12:55:28;4.72;;;1.30;;
70148;SDS011;57514;52.164;5.282;2023-04-03T12:57:55;1.88;;;0.90;;
70148;SDS011;57514;52.164;5.282;2023-04-03T13:00:28;2.83;;;1.20;;
70148;SDS011;57514;52.164;5.282;2023-04-03T13:02:59;2.72;;;1.40;;
70148;SDS011;57514;52.164;5.282;2023-04-03T13:05:30;2.20;;;1.10;;
70148;SDS011;57514;52.164;5.282;2023-04-03T13:08:04;2.35;;;1.10;;
70148;SDS011;57514;52.164;5.282;2023-04-03T13:10:43;4.55;;;1.30;;
70148;SDS011;57514;52.164;5.282;2023-04-03T13:13:18;4.35;;;1.42;;
70148;SDS011;57514;52.164;5.282;2023-04-03T13:15:47;3.05;;;1.25;;
70148;SDS011;57514;52.164;5.282;2023-04-03T13:21:11;3.20;;;1.23;;
70148;SDS011;57514;52.164;5.282;2023-04-03T13:23:44;2.10;;;1.05;;
70148;SDS011;57514;52.164;5.282;2023-04-03T13:26:21;4.90;;;1.40;;
70148;SDS011;57514;52.164;5.282;2023-04-03T13:28:52;4.47;;;1.27;;
70148;SDS011;57514;52.164;5.282;2023-04-03T13:31:23;2.60;;;1.20;;
70148;SDS011;57514;52.164;5.282;2023-04-03T13:34:07;4.53;;;1.20;;
70148;SDS011;57514;52.164;5.282;2023-04-03T13:36:41;3.20;;;1.20;;
70148;SDS011;57514;52.164;5.282;2023-04-03T13:41:42;2.70;;;1.17;;
70148;SDS011;57514;52.164;5.282;2023-04-03T13:49:59;2.53;;;1.15;;
70148;SDS011;57514;52.164;5.282;2023-04-03T13:52:28;4.68;;;1.33;;
70148;SDS011;57514;52.164;5.282;2023-04-03T13:55:01;3.88;;;1.40;;
70148;SDS011;57514;52.164;5.282;2023-04-03T13:57:33;5.45;;;1.58;;
70148;SDS011;57514;52.164;5.282;2023-04-03T14:00:18;4.90;;;1.50;;
70148;SDS011;57514;52.164;5.282;2023-04-03T14:02:47;3.75;;;0.98;;
70148;SDS011;57514;52.164;5.282;2023-04-03T14:05:15;2.08;;;1.02;;
70148;SDS011;57514;52.164;5.282;2023-04-03T14:07:47;3.35;;;1.13;;
70148;SDS011;57514;52.164;5.282;2023-04-03T14:10:16;2.65;;;1.10;;
70148;SDS011;57514;52.164;5.282;2023-04-03T14:12:43;3.63;;;1.58;;
70148;SDS011;57514;52.164;5.282;2023-04-03T14:15:22;2.50;;;1.25;;
70148;SDS011;57514;52.164;5.282;2023-04-03T14:17:50;3.63;;;1.60;;
70148;SDS011;57514;52.164;5.282;2023-04-03T14:20:19;3.88;;;1.55;;
70148;SDS011;57514;52.164;5.282;2023-04-03T14:22:48;3.00;;;1.10;;
70148;SDS011;57514;52.164;5.282;2023-04-03T14:25:15;2.50;;;1.30;;
70148;SDS011;57514;52.164;5.282;2023-04-03T14:27:45;3.33;;;1.20;;
70148;SDS011;57514;52.164;5.282;2023-04-03T14:30:14;3.00;;;1.13;;
70148;SDS011;57514;52.164;5.282;2023-04-03T14:32:44;2.92;;;1.20;;
70148;SDS011;57514;52.164;5.282;2023-04-03T14:35:12;3.47;;;1.45;;
70148;SDS011;57514;52.164;5.282;2023-04-03T14:37:39;4.65;;;1.50;;
70148;SDS011;57514;52.164;5.282;2023-04-03T14:40:08;5.50;;;2.38;;
70148;SDS011;57514;52.164;5.282;2023-04-03T14:42:36;3.80;;;1.83;;
70148;SDS011;57514;52.164;5.282;2023-04-03T14:45:05;5.93;;;1.92;;
70148;SDS011;57514;52.164;5.282;2023-04-03T14:47:33;3.83;;;2.08;;
70148;SDS011;57514;52.164;5.282;2023-04-03T14:50:03;3.28;;;2.08;;
70148;SDS011;57514;52.164;5.282;2023-04-03T14:52:32;3.55;;;1.63;;
70148;SDS011;57514;52.164;5.282;2023-04-03T14:55:00;5.32;;;2.25;;
70148;SDS011;57514;52.164;5.282;2023-04-03T14:57:28;4.45;;;2.42;;
70148;SDS011;57514;52.164;5.282;2023-04-03T14:59:56;8.05;;;1.80;;
70148;SDS011;57514;52.164;5.282;2023-04-03T15:02:30;5.57;;;2.28;;
70148;SDS011;57514;52.164;5.282;2023-04-03T15:04:59;5.55;;;2.20;;
70148;SDS011;57514;52.164;5.282;2023-04-03T15:07:27;2.92;;;1.40;;
70148;SDS011;57514;52.164;5.282;2023-04-03T15:09:55;4.45;;;1.38;;
70148;SDS011;57514;52.164;5.282;2023-04-03T15:12:23;5.65;;;2.03;;
70148;SDS011;57514;52.164;5.282;2023-04-03T15:14:50;4.47;;;1.80;;
70148;SDS011;57514;52.164;5.282;2023-04-03T15:17:28;5.53;;;2.10;;
70148;SDS011;57514;52.164;5.282;2023-04-03T15:19:55;5.80;;;1.45;;
70148;SDS011;57514;52.164;5.282;2023-04-03T15:22:23;4.72;;;1.77;;
70148;SDS011;57514;52.164;5.282;2023-04-03T15:24:51;2.83;;;1.30;;
70148;SDS011;57514;52.164;5.282;2023-04-03T15:27:18;5.82;;;1.75;;
70148;SDS011;57514;52.164;5.282;2023-04-03T15:29:45;5.97;;;1.80;;
70148;SDS011;57514;52.164;5.282;2023-04-03T15:32:12;4.68;;;2.33;;
70148;SDS011;57514;52.164;5.282;2023-04-03T15:34:40;5.57;;;2.58;;
70148;SDS011;57514;52.164;5.282;2023-04-03T15:37:07;3.72;;;1.55;;
70148;SDS011;57514;52.164;5.282;2023-04-03T15:39:35;3.70;;;2.20;;
70148;SDS011;57514;52.164;5.282;2023-04-03T15:42:02;5.90;;;1.90;;
70148;SDS011;57514;52.164;5.282;2023-04-03T15:44:34;5.85;;;1.85;;
70148;SDS011;57514;52.164;5.282;2023-04-03T15:47:02;3.30;;;1.45;;
70148;SDS011;57514;52.164;5.282;2023-04-03T15:49:29;5.30;;;1.90;;
70148;SDS011;57514;52.164;5.282;2023-04-03T15:51:57;4.90;;;1.60;;
70148;SDS011;57514;52.164;5.282;2023-04-03T15:54:25;2.72;;;1.90;;
70148;SDS011;57514;52.164;5.282;2023-04-03T15:56:52;7.30;;;2.15;;
70148;SDS011;57514;52.164;5.282;2023-04-03T15:59:19;5.35;;;2.50;;
70148;SDS011;57514;52.164;5.282;2023-04-03T16:01:47;4.68;;;2.35;;
70148;SDS011;57514;52.164;5.282;2023-04-03T16:04:15;8.18;;;2.30;;
70148;SDS011;57514;52.164;5.282;2023-04-03T16:06:44;3.65;;;1.42;;
70148;SDS011;57514;52.164;5.282;2023-04-03T16:09:11;4.82;;;2.45;;
70148;SDS011;57514;52.164;5.282;2023-04-03T16:11:39;4.93;;;2.40;;
70148;SDS011;57514;52.164;5.282;2023-04-03T16:14:08;8.30;;;2.38;;
70148;SDS011;57514;52.164;5.282;2023-04-03T16:16:36;5.03;;;1.92;;
70148;SDS011;57514;52.164;5.282;2023-04-03T16:19:03;4.65;;;2.22;;
70148;SDS011;57514;52.164;5.282;2023-04-03T16:21:31;4.03;;;2.05;;
70148;SDS011;57514;52.164;5.282;2023-04-03T16:23:59;4.90;;;2.42;;
70148;SDS011;57514;52.164;5.282;2023-04-03T16:26:27;5.25;;;1.58;;
70148;SDS011;57514;52.164;5.282;2023-04-03T16:28:54;6.43;;;2.42;;
70148;SDS011;57514;52.164;5.282;2023-04-03T16:31:21;5.65;;;2.20;;
70148;SDS011;57514;52.164;5.282;2023-04-03T16:33:50;12.57;;;1.75;;
70148;SDS011;57514;52.164;5.282;2023-04-03T16:36:17;4.45;;;2.38;;
70148;SDS011;57514;52.164;5.282;2023-04-03T16:38:44;4.00;;;1.80;;
70148;SDS011;57514;52.164;5.282;2023-04-03T16:41:12;5.32;;;1.80;;
70148;SDS011;57514;52.164;5.282;2023-04-03T16:43:40;5.35;;;1.92;;
70148;SDS011;57514;52.164;5.282;2023-04-03T16:46:08;5.00;;;2.38;;
70148;SDS011;57514;52.164;5.282;2023-04-03T16:48:35;4.78;;;1.80;;
70148;SDS011;57514;52.164;5.282;2023-04-03T16:51:03;3.83;;;2.33;;
70148;SDS011;57514;52.164;5.282;2023-04-03T16:53:30;4.63;;;1.73;;